Dames Quarter, Maryland
Current Conditions -  °F | °C
As of 5:54 PM on Tuesday 27 Jan 2015 (Local Time) from KSBY Reporting Station
Clear Clear  
Wind Chill: 28°   Ceiling: Unl
Heat Index: 35°   Visibility: 10mi
Dew Point: 23°   Wind: 9mph
Humidity: 61%   Direction: 310°NW
Pressure: 29.78"   Gusts: NA
Location:  38.19°N, 75.9°W
Report Text: KSBY 272254Z 31008KT 10SM CLR 02/M05 A2978 RMK AO2 SLP087 T00171050
Loading
Personal Weather Stations






























Interactive Weather Map New forecast layout! Learn more

10-Day Weather Forecast

Advertisements
Track Severe Weather on mobile